sensor_id;sensor_type;location;lat;lon;timestamp;pressure;altitude;pressure_sealevel;temperature;humidity
78223;BME280;67497;53.058;21.618;2023-03-01T00:01:59;101629.38;;;23.80;33.85
78223;BME280;67497;53.058;21.618;2023-03-01T00:03:59;101626.81;;;23.85;33.46
78223;BME280;67497;53.058;21.618;2023-03-01T00:06:01;101637.19;;;23.91;33.32
78223;BME280;67497;53.058;21.618;2023-03-01T00:08:02;101625.34;;;23.89;33.73
78223;BME280;67497;53.058;21.618;2023-03-01T00:10:02;101626.63;;;23.93;33.49
78223;BME280;67497;53.058;21.618;2023-03-01T00:12:04;101624.50;;;23.95;33.44
78223;BME280;67497;53.058;21.618;2023-03-01T00:14:04;101621.03;;;23.93;33.40
78223;BME280;67497;53.058;21.618;2023-03-01T00:16:09;101614.56;;;23.93;33.32
78223;BME280;67497;53.058;21.618;2023-03-01T00:18:10;101610.25;;;23.90;33.28
78223;BME280;67497;53.058;21.618;2023-03-01T00:20:11;101599.47;;;23.87;33.22
78223;BME280;67497;53.058;21.618;2023-03-01T00:22:12;101578.34;;;23.78;33.25
78223;BME280;67497;53.058;21.618;2023-03-01T00:24:12;101591.94;;;23.81;33.54
78223;BME280;67497;53.058;21.618;2023-03-01T00:26:14;101602.25;;;23.80;33.12
78223;BME280;67497;53.058;21.618;2023-03-01T00:28:15;101593.41;;;23.77;33.52
78223;BME280;67497;53.058;21.618;2023-03-01T00:30:16;101597.28;;;23.76;33.39
78223;BME280;67497;53.058;21.618;2023-03-01T00:32:16;101591.69;;;23.76;33.26
78223;BME280;67497;53.058;21.618;2023-03-01T00:34:17;101590.38;;;23.72;33.07
78223;BME280;67497;53.058;21.618;2023-03-01T00:36:17;101580.00;;;23.66;33.22
78223;BME280;67497;53.058;21.618;2023-03-01T00:38:18;101566.66;;;23.61;33.40
78223;BME280;67497;53.058;21.618;2023-03-01T00:40:18;101575.03;;;23.61;33.17
78223;BME280;67497;53.058;21.618;2023-03-01T00:42:19;101584.31;;;23.62;33.17
78223;BME280;67497;53.058;21.618;2023-03-01T00:44:19;101586.47;;;23.60;33.18
78223;BME280;67497;53.058;21.618;2023-03-01T00:46:22;101590.94;;;23.54;33.50
78223;BME280;67497;53.058;21.618;2023-03-01T00:48:23;101585.53;;;23.53;33.33
78223;BME280;67497;53.058;21.618;2023-03-01T00:50:24;101581.44;;;23.49;33.55
78223;BME280;67497;53.058;21.618;2023-03-01T00:52:24;101582.50;;;23.48;33.44
78223;BME280;67497;53.058;21.618;2023-03-01T00:54:25;101576.25;;;23.46;33.39
78223;BME280;67497;53.058;21.618;2023-03-01T00:56:26;101570.03;;;23.44;33.46
78223;BME280;67497;53.058;21.618;2023-03-01T00:58:26;101567.81;;;23.39;33.36
78223;BME280;67497;53.058;21.618;2023-03-01T01:00:27;101558.28;;;23.34;33.44
78223;BME280;67497;53.058;21.618;2023-03-01T01:02:28;101554.38;;;23.28;33.59
78223;BME280;67497;53.058;21.618;2023-03-01T01:04:28;101549.88;;;23.27;33.38
78223;BME280;67497;53.058;21.618;2023-03-01T01:06:35;101554.38;;;23.28;33.38
78223;BME280;67497;53.058;21.618;2023-03-01T01:08:36;101561.25;;;23.26;33.17
78223;BME280;67497;53.058;21.618;2023-03-01T01:10:36;101551.09;;;23.18;33.62
78223;BME280;67497;53.058;21.618;2023-03-01T01:12:37;101552.38;;;23.15;33.49
78223;BME280;67497;53.058;21.618;2023-03-01T01:14:37;101553.44;;;23.14;33.56
78223;BME280;67497;53.058;21.618;2023-03-01T01:16:38;101541.38;;;23.07;33.57
78223;BME280;67497;53.058;21.618;2023-03-01T01:18:39;101564.38;;;23.09;33.68
78223;BME280;67497;53.058;21.618;2023-03-01T01:20:40;101551.22;;;23.03;33.47
78223;BME280;67497;53.058;21.618;2023-03-01T01:22:41;101551.84;;;22.99;33.82
78223;BME280;67497;53.058;21.618;2023-03-01T01:24:41;101553.09;;;22.96;33.40
78223;BME280;67497;53.058;21.618;2023-03-01T01:26:42;101559.56;;;22.97;33.86
78223;BME280;67497;53.058;21.618;2023-03-01T01:28:44;101559.31;;;22.92;33.99
78223;BME280;67497;53.058;21.618;2023-03-01T01:30:44;101552.63;;;22.86;34.09
78223;BME280;67497;53.058;21.618;2023-03-01T01:32:45;101567.47;;;22.87;33.94
78223;BME280;67497;53.058;21.618;2023-03-01T01:34:46;101553.63;;;22.79;34.24
78223;BME280;67497;53.058;21.618;2023-03-01T01:36:51;101561.16;;;22.78;33.85
78223;BME280;67497;53.058;21.618;2023-03-01T01:38:54;101557.41;;;22.71;34.43
78223;BME280;67497;53.058;21.618;2023-03-01T01:40:54;101542.16;;;22.67;34.06
78223;BME280;67497;53.058;21.618;2023-03-01T01:42:55;101557.38;;;22.65;34.00
78223;BME280;67497;53.058;21.618;2023-03-01T01:45:33;101562.09;;;22.64;33.77
78223;BME280;67497;53.058;21.618;2023-03-01T01:47:34;101553.34;;;22.52;34.28
78223;BME280;67497;53.058;21.618;2023-03-01T01:49:43;101547.34;;;22.49;34.09
78223;BME280;67497;53.058;21.618;2023-03-01T01:51:47;101560.03;;;22.51;34.17
78223;BME280;67497;53.058;21.618;2023-03-01T01:53:52;101546.00;;;22.45;34.27
78223;BME280;67497;53.058;21.618;2023-03-01T01:55:56;101541.88;;;22.41;34.17
78223;BME280;67497;53.058;21.618;2023-03-01T01:58:02;101551.31;;;22.40;34.11
78223;BME280;67497;53.058;21.618;2023-03-01T02:00:08;101546.66;;;22.26;34.39
78223;BME280;67497;53.058;21.618;2023-03-01T02:02:11;101554.84;;;22.27;34.10
78223;BME280;67497;53.058;21.618;2023-03-01T02:04:12;101544.00;;;22.18;34.45
78223;BME280;67497;53.058;21.618;2023-03-01T02:09:23;101545.00;;;22.10;34.53
78223;BME280;67497;53.058;21.618;2023-03-01T02:11:24;101541.94;;;22.05;34.30
78223;BME280;67497;53.058;21.618;2023-03-01T02:13:27;101543.88;;;22.04;34.23
78223;BME280;67497;53.058;21.618;2023-03-01T02:15:31;101539.56;;;22.02;34.51
78223;BME280;67497;53.058;21.618;2023-03-01T02:17:32;101523.59;;;21.96;34.52
78223;BME280;67497;53.058;21.618;2023-03-01T02:22:17;101531.91;;;21.89;34.42
78223;BME280;67497;53.058;21.618;2023-03-01T02:24:39;101533.31;;;21.85;34.49
78223;BME280;67497;53.058;21.618;2023-03-01T02:26:50;101529.38;;;21.80;34.69
78223;BME280;67497;53.058;21.618;2023-03-01T02:28:52;101515.50;;;21.65;34.64
78223;BME280;67497;53.058;21.618;2023-03-01T02:30:53;101526.44;;;21.67;34.53
78223;BME280;67497;53.058;21.618;2023-03-01T02:33:12;101514.81;;;21.63;34.66
78223;BME280;67497;53.058;21.618;2023-03-01T02:35:14;101508.97;;;21.58;34.61
78223;BME280;67497;53.058;21.618;2023-03-01T02:37:16;101511.28;;;21.55;34.62
78223;BME280;67497;53.058;21.618;2023-03-01T02:39:35;101511.88;;;21.50;34.70
78223;BME280;67497;53.058;21.618;2023-03-01T02:41:39;101519.19;;;21.51;34.54
78223;BME280;67497;53.058;21.618;2023-03-01T02:43:41;101507.94;;;21.44;34.60
78223;BME280;67497;53.058;21.618;2023-03-01T02:45:52;101498.44;;;21.39;34.62
78223;BME280;67497;53.058;21.618;2023-03-01T02:47:54;101481.53;;;21.26;34.61
78223;BME280;67497;53.058;21.618;2023-03-01T02:49:55;101503.56;;;21.35;34.80
78223;BME280;67497;53.058;21.618;2023-03-01T02:52:21;101498.53;;;21.31;34.72
78223;BME280;67497;53.058;21.618;2023-03-01T02:54:29;101475.69;;;21.21;34.59
78223;BME280;67497;53.058;21.618;2023-03-01T02:56:32;101486.63;;;21.22;34.75
78223;BME280;67497;53.058;21.618;2023-03-01T02:58:33;101490.88;;;21.18;34.88
78223;BME280;67497;53.058;21.618;2023-03-01T03:00:46;101489.94;;;21.11;35.02
78223;BME280;67497;53.058;21.618;2023-03-01T03:02:48;101500.66;;;21.14;35.35
78223;BME280;67497;53.058;21.618;2023-03-01T03:04:49;101491.53;;;21.06;35.30
78223;BME280;67497;53.058;21.618;2023-03-01T03:06:50;101499.72;;;21.07;35.41
78223;BME280;67497;53.058;21.618;2023-03-01T03:08:51;101492.28;;;21.00;35.46
78223;BME280;67497;53.058;21.618;2023-03-01T03:10:51;101489.69;;;20.98;35.90
78223;BME280;67497;53.058;21.618;2023-03-01T03:12:57;101488.84;;;20.98;35.67
78223;BME280;67497;53.058;21.618;2023-03-01T03:14:58;101488.75;;;20.91;35.60
78223;BME280;67497;53.058;21.618;2023-03-01T03:16:59;101485.84;;;20.84;35.94
78223;BME280;67497;53.058;21.618;2023-03-01T03:18:59;101488.63;;;20.84;36.31
78223;BME280;67497;53.058;21.618;2023-03-01T03:21:08;101472.72;;;20.78;36.28
78223;BME280;67497;53.058;21.618;2023-03-01T03:23:10;101456.38;;;20.75;36.22
78223;BME280;67497;53.058;21.618;2023-03-01T03:25:11;101471.84;;;20.78;36.25
78223;BME280;67497;53.058;21.618;2023-03-01T03:27:12;101470.19;;;20.69;36.39
78223;BME280;67497;53.058;21.618;2023-03-01T03:29:12;101468.75;;;20.73;36.48
78223;BME280;67497;53.058;21.618;2023-03-01T03:31:13;101465.19;;;20.64;36.37
78223;BME280;67497;53.058;21.618;2023-03-01T03:33:13;101472.50;;;20.65;36.25
78223;BME280;67497;53.058;21.618;2023-03-01T03:35:14;101460.69;;;20.63;36.50
78223;BME280;67497;53.058;21.618;2023-03-01T03:37:14;101462.78;;;20.61;36.61
78223;BME280;67497;53.058;21.618;2023-03-01T03:39:33;101456.94;;;20.56;36.22
78223;BME280;67497;53.058;21.618;2023-03-01T03:41:35;101456.44;;;20.53;36.06
78223;BME280;67497;53.058;21.618;2023-03-01T03:43:36;101465.88;;;20.52;36.60
78223;BME280;67497;53.058;21.618;2023-03-01T03:45:38;101462.38;;;20.50;36.36
78223;BME280;67497;53.058;21.618;2023-03-01T03:47:38;101454.63;;;20.45;36.45
78223;BME280;67497;53.058;21.618;2023-03-01T03:49:39;101448.56;;;20.42;36.52
78223;BME280;67497;53.058;21.618;2023-03-01T03:51:39;101428.13;;;20.35;36.52
78223;BME280;67497;53.058;21.618;2023-03-01T03:53:40;101436.09;;;20.38;36.37
78223;BME280;67497;53.058;21.618;2023-03-01T03:55:40;101433.19;;;20.31;36.41
78223;BME280;67497;53.058;21.618;2023-03-01T03:57:41;101441.03;;;20.27;36.60
78223;BME280;67497;53.058;21.618;2023-03-01T03:59:42;101440.19;;;20.27;36.38
78223;BME280;67497;53.058;21.618;2023-03-01T04:01:42;101436.22;;;20.21;36.46
78223;BME280;67497;53.058;21.618;2023-03-01T04:03:44;101456.69;;;20.28;36.75
78223;BME280;67497;53.058;21.618;2023-03-01T04:05:48;101453.25;;;20.26;36.38
78223;BME280;67497;53.058;21.618;2023-03-01T04:07:50;101445.44;;;20.22;36.37
78223;BME280;67497;53.058;21.618;2023-03-01T04:10:03;101443.88;;;20.19;36.42
78223;BME280;67497;53.058;21.618;2023-03-01T04:12:03;101443.41;;;20.16;36.54
78223;BME280;67497;53.058;21.618;2023-03-01T04:14:04;101460.09;;;20.16;36.70
78223;BME280;67497;53.058;21.618;2023-03-01T04:16:05;101448.66;;;20.11;36.87
78223;BME280;67497;53.058;21.618;2023-03-01T04:18:06;101450.22;;;20.13;36.79
78223;BME280;67497;53.058;21.618;2023-03-01T04:20:12;101443.47;;;20.08;36.84
78223;BME280;67497;53.058;21.618;2023-03-01T04:22:12;101441.94;;;20.05;36.62
78223;BME280;67497;53.058;21.618;2023-03-01T04:24:18;101445.59;;;20.06;36.82
78223;BME280;67497;53.058;21.618;2023-03-01T04:26:19;101450.16;;;19.99;36.90
78223;BME280;67497;53.058;21.618;2023-03-01T04:28:27;101451.03;;;19.99;37.12
78223;BME280;67497;53.058;21.618;2023-03-01T04:30:28;101437.69;;;19.95;36.88
78223;BME280;67497;53.058;21.618;2023-03-01T04:32:29;101446.03;;;19.95;36.43
78223;BME280;67497;53.058;21.618;2023-03-01T04:34:29;101455.41;;;19.94;36.26
78223;BME280;67497;53.058;21.618;2023-03-01T04:36:30;101448.97;;;19.93;36.70
78223;BME280;67497;53.058;21.618;2023-03-01T04:38:30;101439.28;;;19.89;36.70
78223;BME280;67497;53.058;21.618;2023-03-01T04:40:31;101441.56;;;19.86;36.69
78223;BME280;67497;53.058;21.618;2023-03-01T04:42:32;101437.63;;;19.80;36.91
78223;BME280;67497;53.058;21.618;2023-03-01T04:44:32;101448.53;;;19.82;37.15
78223;BME280;67497;53.058;21.618;2023-03-01T04:46:33;101452.03;;;19.84;36.73
78223;BME280;67497;53.058;21.618;2023-03-01T04:48:33;101443.19;;;19.80;36.56
78223;BME280;67497;53.058;21.618;2023-03-01T04:50:34;101438.50;;;19.81;36.98
78223;BME280;67497;53.058;21.618;2023-03-01T04:52:35;101427.22;;;19.74;36.63
78223;BME280;67497;53.058;21.618;2023-03-01T04:54:36;101434.84;;;19.80;36.53
78223;BME280;67497;53.058;21.618;2023-03-01T04:56:36;101435.03;;;19.79;36.69
78223;BME280;67497;53.058;21.618;2023-03-01T04:58:37;101426.38;;;19.74;36.79
78223;BME280;67497;53.058;21.618;2023-03-01T05:00:37;101426.38;;;19.74;36.85
78223;BME280;67497;53.058;21.618;2023-03-01T05:02:38;101426.25;;;19.67;36.63
78223;BME280;67497;53.058;21.618;2023-03-01T05:04:38;101422.41;;;19.68;36.48
78223;BME280;67497;53.058;21.618;2023-03-01T05:06:39;101430.06;;;19.66;36.55
78223;BME280;67497;53.058;21.618;2023-03-01T05:08:40;101432.78;;;19.74;36.63
78223;BME280;67497;53.058;21.618;2023-03-01T05:10:41;101421.44;;;19.61;36.70
78223;BME280;67497;53.058;21.618;2023-03-01T05:12:42;101435.63;;;19.66;36.65
78223;BME280;67497;53.058;21.618;2023-03-01T05:14:42;101433.94;;;19.65;36.85
78223;BME280;67497;53.058;21.618;2023-03-01T05:16:43;101428.72;;;19.62;36.91
78223;BME280;67497;53.058;21.618;2023-03-01T05:18:43;101432.38;;;19.62;36.52
78223;BME280;67497;53.058;21.618;2023-03-01T05:20:44;101424.28;;;19.53;36.93
78223;BME280;67497;53.058;21.618;2023-03-01T05:22:44;101415.06;;;19.52;36.95
78223;BME280;67497;53.058;21.618;2023-03-01T05:24:45;101421.81;;;19.58;37.12
78223;BME280;67497;53.058;21.618;2023-03-01T05:26:46;101421.69;;;19.51;36.83
78223;BME280;67497;53.058;21.618;2023-03-01T05:28:48;101418.91;;;19.51;37.20
78223;BME280;67497;53.058;21.618;2023-03-01T05:30:48;101426.19;;;19.52;37.06
78223;BME280;67497;53.058;21.618;2023-03-01T05:32:51;101416.88;;;19.45;36.95
78223;BME280;67497;53.058;21.618;2023-03-01T05:34:55;101415.13;;;19.44;37.21
78223;BME280;67497;53.058;21.618;2023-03-01T05:36:56;101414.59;;;19.49;37.01
78223;BME280;67497;53.058;21.618;2023-03-01T05:38:56;101414.44;;;19.42;37.02
78223;BME280;67497;53.058;21.618;2023-03-01T05:40:57;101417.91;;;19.44;36.85
78223;BME280;67497;53.058;21.618;2023-03-01T05:42:58;101413.78;;;19.40;36.77
78223;BME280;67497;53.058;21.618;2023-03-01T05:44:58;101429.22;;;19.43;36.80
78223;BME280;67497;53.058;21.618;2023-03-01T05:46:59;101426.59;;;19.41;36.88
78223;BME280;67497;53.058;21.618;2023-03-01T05:48:59;101434.25;;;19.39;36.93
78223;BME280;67497;53.058;21.618;2023-03-01T05:51:00;101436.88;;;19.41;37.11
78223;BME280;67497;53.058;21.618;2023-03-01T05:53:04;101435.81;;;19.42;36.96
78223;BME280;67497;53.058;21.618;2023-03-01T05:55:06;101430.44;;;19.40;36.94
78223;BME280;67497;53.058;21.618;2023-03-01T05:57:07;101424.53;;;19.35;36.92
78223;BME280;67497;53.058;21.618;2023-03-01T05:59:07;101416.94;;;19.29;36.93
78223;BME280;67497;53.058;21.618;2023-03-01T06:01:11;101420.22;;;19.33;36.99
78223;BME280;67497;53.058;21.618;2023-03-01T06:03:15;101431.13;;;19.34;36.92
78223;BME280;67497;53.058;21.618;2023-03-01T06:05:16;101414.53;;;19.26;36.97
78223;BME280;67497;53.058;21.618;2023-03-01T06:07:16;101403.81;;;19.15;36.91
78223;BME280;67497;53.058;21.618;2023-03-01T06:09:17;101428.78;;;19.23;37.10
78223;BME280;67497;53.058;21.618;2023-03-01T06:11:18;101441.28;;;19.27;37.08
78223;BME280;67497;53.058;21.618;2023-03-01T06:13:18;101437.78;;;19.25;37.38
78223;BME280;67497;53.058;21.618;2023-03-01T06:15:19;101433.81;;;19.20;37.17
78223;BME280;67497;53.058;21.618;2023-03-01T06:17:20;101437.09;;;19.23;37.29
78223;BME280;67497;53.058;21.618;2023-03-01T06:19:20;101438.16;;;19.22;37.10
78223;BME280;67497;53.058;21.618;2023-03-01T06:21:21;101429.19;;;19.12;36.92
78223;BME280;67497;53.058;21.618;2023-03-01T06:23:22;101438.91;;;19.16;37.35
78223;BME280;67497;53.058;21.618;2023-03-01T06:25:25;101443.69;;;19.22;36.88
78223;BME280;67497;53.058;21.618;2023-03-01T06:27:26;101435.06;;;19.17;37.07
78223;BME280;67497;53.058;21.618;2023-03-01T06:29:26;101442.38;;;19.10;37.05
78223;BME280;67497;53.058;21.618;2023-03-01T06:31:27;101457.63;;;19.14;37.10
78223;BME280;67497;53.058;21.618;2023-03-01T06:33:28;101464.25;;;19.13;37.11
78223;BME280;67497;53.058;21.618;2023-03-01T06:35:29;101469.63;;;19.15;37.14
78223;BME280;67497;53.058;21.618;2023-03-01T06:37:31;101467.38;;;19.10;36.95
78223;BME280;67497;53.058;21.618;2023-03-01T06:39:32;101488.19;;;19.14;37.21
78223;BME280;67497;53.058;21.618;2023-03-01T06:41:33;101486.16;;;19.08;37.28
78223;BME280;67497;53.058;21.618;2023-03-01T06:43:33;101477.16;;;18.98;37.21
78223;BME280;67497;53.058;21.618;2023-03-01T06:45:34;101484.09;;;19.02;37.19
78223;BME280;67497;53.058;21.618;2023-03-01T06:47:35;101483.91;;;19.03;37.30
78223;BME280;67497;53.058;21.618;2023-03-01T06:49:35;101483.53;;;19.06;36.95
78223;BME280;67497;53.058;21.618;2023-03-01T06:51:36;101481.97;;;19.12;36.87
78223;BME280;67497;53.058;21.618;2023-03-01T06:53:37;101498.06;;;19.25;36.73
78223;BME280;67497;53.058;21.618;2023-03-01T06:55:37;101481.16;;;19.34;36.41
78223;BME280;67497;53.058;21.618;2023-03-01T06:57:38;101482.22;;;19.64;35.96
78223;BME280;67497;53.058;21.618;2023-03-01T06:59:38;101481.56;;;19.85;35.70
78223;BME280;67497;53.058;21.618;2023-03-01T07:01:39;101471.09;;;20.09;35.45
78223;BME280;67497;53.058;21.618;2023-03-01T07:03:39;101479.38;;;20.40;34.92
78223;BME280;67497;53.058;21.618;2023-03-01T07:05:40;101480.06;;;20.71;34.40
78223;BME280;67497;53.058;21.618;2023-03-01T07:07:40;101464.91;;;20.88;33.84
78223;BME280;67497;53.058;21.618;2023-03-01T07:09:41;101475.78;;;21.13;33.43
78223;BME280;67497;53.058;21.618;2023-03-01T07:11:41;101463.50;;;21.22;33.19
78223;BME280;67497;53.058;21.618;2023-03-01T07:13:42;101495.06;;;21.43;33.26
78223;BME280;67497;53.058;21.618;2023-03-01T07:15:42;101488.00;;;21.62;32.88
78223;BME280;67497;53.058;21.618;2023-03-01T07:17:43;101485.53;;;21.74;32.34
78223;BME280;67497;53.058;21.618;2023-03-01T07:19:44;101488.69;;;21.85;32.49
78223;BME280;67497;53.058;21.618;2023-03-01T07:21:45;101496.56;;;21.96;32.21
78223;BME280;67497;53.058;21.618;2023-03-01T07:23:47;101513.44;;;22.10;32.20
78223;BME280;67497;53.058;21.618;2023-03-01T07:25:54;101505.06;;;22.10;32.17
78223;BME280;67497;53.058;21.618;2023-03-01T07:27:55;101496.91;;;22.08;32.06
78223;BME280;67497;53.058;21.618;2023-03-01T07:29:55;101494.38;;;22.13;31.93
78223;BME280;67497;53.058;21.618;2023-03-01T07:31:56;101500.28;;;22.25;31.88
78223;BME280;67497;53.058;21.618;2023-03-01T07:33:57;101486.91;;;22.20;31.65
78223;BME280;67497;53.058;21.618;2023-03-01T07:36:01;101501.41;;;22.30;31.87
78223;BME280;67497;53.058;21.618;2023-03-01T07:38:02;101497.06;;;22.28;32.06
78223;BME280;67497;53.058;21.618;2023-03-01T07:40:03;101497.06;;;22.28;32.04
78223;BME280;67497;53.058;21.618;2023-03-01T07:42:03;101505.31;;;22.36;32.33
78223;BME280;67497;53.058;21.618;2023-03-01T07:44:04;101497.34;;;22.33;32.12
78223;BME280;67497;53.058;21.618;2023-03-01T07:46:05;101502.25;;;22.31;32.05
78223;BME280;67497;53.058;21.618;2023-03-01T07:48:06;101496.63;;;22.24;31.98
78223;BME280;67497;53.058;21.618;2023-03-01T07:50:07;101504.78;;;22.26;32.04
78223;BME280;67497;53.058;21.618;2023-03-01T07:52:12;101491.97;;;22.10;32.36
78223;BME280;67497;53.058;21.618;2023-03-01T07:54:13;101498.44;;;22.11;32.54
78223;BME280;67497;53.058;21.618;2023-03-01T07:56:14;101496.22;;;22.06;32.41
78223;BME280;67497;53.058;21.618;2023-03-01T07:58:17;101493.56;;;21.98;32.31
78223;BME280;67497;53.058;21.618;2023-03-01T08:00:18;101491.38;;;21.93;32.55
78223;BME280;67497;53.058;21.618;2023-03-01T08:02:18;101494.94;;;21.87;32.58
78223;BME280;67497;53.058;21.618;2023-03-01T08:04:19;101497.84;;;21.79;32.75
78223;BME280;67497;53.058;21.618;2023-03-01T08:06:19;101487.00;;;21.70;32.93
78223;BME280;67497;53.058;21.618;2023-03-01T08:08:20;101489.25;;;21.60;32.98
78223;BME280;67497;53.058;21.618;2023-03-01T08:10:21;101494.34;;;21.56;32.96
78223;BME280;67497;53.058;21.618;2023-03-01T08:12:21;101477.00;;;21.39;33.09
78223;BME280;67497;53.058;21.618;2023-03-01T08:14:21;101484.88;;;21.36;33.30
78223;BME280;67497;53.058;21.618;2023-03-01T08:16:22;101491.53;;;21.35;33.27
78223;BME280;67497;53.058;21.618;2023-03-01T08:18:25;101496.31;;;21.41;33.61
78223;BME280;67497;53.058;21.618;2023-03-01T08:20:25;101498.03;;;21.42;33.57
78223;BME280;67497;53.058;21.618;2023-03-01T08:22:26;101496.59;;;21.46;33.29
78223;BME280;67497;53.058;21.618;2023-03-01T08:24:26;101484.31;;;21.40;33.32
78223;BME280;67497;53.058;21.618;2023-03-01T08:26:27;101487.16;;;21.47;33.42
78223;BME280;67497;53.058;21.618;2023-03-01T08:28:27;101493.44;;;21.49;33.41
78223;BME280;67497;53.058;21.618;2023-03-01T08:30:28;101477.34;;;21.51;33.58
78223;BME280;67497;53.058;21.618;2023-03-01T08:32:28;101469.88;;;21.52;33.27
78223;BME280;67497;53.058;21.618;2023-03-01T08:34:29;101483.00;;;21.58;33.42
78223;BME280;67497;53.058;21.618;2023-03-01T08:36:35;101485.22;;;21.62;33.29
78223;BME280;67497;53.058;21.618;2023-03-01T08:38:37;101476.84;;;21.62;33.31
78223;BME280;67497;53.058;21.618;2023-03-01T08:40:37;101477.13;;;21.67;33.37
78223;BME280;67497;53.058;21.618;2023-03-01T08:42:38;101470.06;;;21.71;33.24
78223;BME280;67497;53.058;21.618;2023-03-01T08:44:38;101475.50;;;21.79;32.63
78223;BME280;67497;53.058;21.618;2023-03-01T08:46:40;101477.25;;;21.80;33.05
78223;BME280;67497;53.058;21.618;2023-03-01T08:48:41;101463.44;;;21.72;32.92
78223;BME280;67497;53.058;21.618;2023-03-01T08:50:43;101473.00;;;21.84;32.92
78223;BME280;67497;53.058;21.618;2023-03-01T08:52:43;101464.44;;;21.86;32.77
78223;BME280;67497;53.058;21.618;2023-03-01T08:54:44;101458.84;;;21.86;32.74
78223;BME280;67497;53.058;21.618;2023-03-01T08:56:45;101468.66;;;21.96;32.64
78223;BME280;67497;53.058;21.618;2023-03-01T08:58:47;101467.59;;;21.97;32.53
78223;BME280;67497;53.058;21.618;2023-03-01T09:00:48;101458.28;;;21.90;32.75
78223;BME280;67497;53.058;21.618;2023-03-01T09:02:48;101467.31;;;21.92;32.58
78223;BME280;67497;53.058;21.618;2023-03-01T09:04:49;101465.78;;;21.90;32.90
78223;BME280;67497;53.058;21.618;2023-03-01T09:06:49;101456.06;;;21.86;32.82
78223;BME280;67497;53.058;21.618;2023-03-01T09:08:50;101447.34;;;21.74;32.80
78223;BME280;67497;53.058;21.618;2023-03-01T09:10:51;101453.81;;;21.75;32.98
78223;BME280;67497;53.058;21.618;2023-03-01T09:12:51;101450.53;;;21.71;32.74
78223;BME280;67497;53.058;21.618;2023-03-01T09:14:52;101439.59;;;21.70;33.27
78223;BME280;67497;53.058;21.618;2023-03-01T09:16:52;101440.72;;;21.75;32.89
78223;BME280;67497;53.058;21.618;2023-03-01T09:18:54;101437.72;;;21.77;33.48
78223;BME280;67497;53.058;21.618;2023-03-01T09:21:12;101433.28;;;21.82;33.10
78223;BME280;67497;53.058;21.618;2023-03-01T09:23:12;101441.94;;;21.87;33.21
78223;BME280;67497;53.058;21.618;2023-03-01T09:25:13;101435.31;;;21.88;32.97
78223;BME280;67497;53.058;21.618;2023-03-01T09:27:14;101425.19;;;21.87;33.12
78223;BME280;67497;53.058;21.618;2023-03-01T09:29:15;101435.56;;;21.93;32.56
78223;BME280;67497;53.058;21.618;2023-03-01T09:31:17;101459.34;;;22.11;32.82
78223;BME280;67497;53.058;21.618;2023-03-01T09:33:18;101444.47;;;22.03;32.61
78223;BME280;67497;53.058;21.618;2023-03-01T09:35:18;101435.03;;;22.04;32.42
78223;BME280;67497;53.058;21.618;2023-03-01T09:37:20;101443.66;;;22.10;32.52
78223;BME280;67497;53.058;21.618;2023-03-01T09:39:20;101448.69;;;22.21;32.52
78223;BME280;67497;53.058;21.618;2023-03-01T09:45:47;101472.88;;;22.35;32.29
78223;BME280;67497;53.058;21.618;2023-03-01T09:47:50;101434.97;;;22.19;32.24
78223;BME280;67497;53.058;21.618;2023-03-01T09:50:10;101382.94;;;21.90;32.27
78223;BME280;67497;53.058;21.618;2023-03-01T09:54:30;101441.81;;;22.17;32.29
78223;BME280;67497;53.058;21.618;2023-03-01T10:00:43;101431.31;;;21.97;32.64
78223;BME280;67497;53.058;21.618;2023-03-01T10:02:49;101440.75;;;21.96;32.58
78223;BME280;67497;53.058;21.618;2023-03-01T10:05:03;101473.09;;;22.12;32.78
78223;BME280;67497;53.058;21.618;2023-03-01T10:07:11;101465.72;;;22.04;32.85
78223;BME280;67497;53.058;21.618;2023-03-01T10:09:17;101451.66;;;21.91;33.00
78223;BME280;67497;53.058;21.618;2023-03-01T10:11:22;101446.69;;;21.87;32.75
78223;BME280;67497;53.058;21.618;2023-03-01T10:13:34;101412.00;;;21.60;33.17
78223;BME280;67497;53.058;21.618;2023-03-01T10:15:47;101413.75;;;21.61;33.42
78223;BME280;67497;53.058;21.618;2023-03-01T10:17:57;101458.09;;;21.92;33.42
78223;BME280;67497;53.058;21.618;2023-03-01T10:20:21;101421.84;;;21.77;32.70
78223;BME280;67497;53.058;21.618;2023-03-01T10:22:29;101450.25;;;22.02;33.42
78223;BME280;67497;53.058;21.618;2023-03-01T10:24:34;101448.97;;;22.04;32.96
78223;BME280;67497;53.058;21.618;2023-03-01T10:26:58;101402.19;;;21.85;32.87
78223;BME280;67497;53.058;21.618;2023-03-01T10:29:08;101379.84;;;21.79;32.91
78223;BME280;67497;53.058;21.618;2023-03-01T10:31:15;101448.16;;;22.32;32.82
78223;BME280;67497;53.058;21.618;2023-03-01T10:33:29;101410.63;;;22.13;32.69
78223;BME280;67497;53.058;21.618;2023-03-01T10:35:33;101411.75;;;22.19;32.51
78223;BME280;67497;53.058;21.618;2023-03-01T10:37:35;101448.22;;;22.38;32.80
78223;BME280;67497;53.058;21.618;2023-03-01T10:42:02;101375.78;;;22.02;32.75
78223;BME280;67497;53.058;21.618;2023-03-01T10:44:03;101433.78;;;22.35;33.61
78223;BME280;67497;53.058;21.618;2023-03-01T10:48:26;101414.88;;;22.30;33.24
78223;BME280;67497;53.058;21.618;2023-03-01T10:50:28;101391.81;;;22.22;33.08
78223;BME280;67497;53.058;21.618;2023-03-01T10:52:34;101366.84;;;22.14;33.01
78223;BME280;67497;53.058;21.618;2023-03-01T10:54:36;101376.78;;;22.23;33.01